LBT844 DTTA-EGKK
Flight info
| Callsign | LBT844 |
|---|---|
| Flight time | N/A |
| Altitude | 36000 |
| Route | TOBIB3C TOBIB UA725 OSMAR DCT PIRIX DCT INDUM DCT UPDUT DCT CORSI DCT OMEDA DCT MERLU DCT PIGOS DCT BARSO DCT OKTET DCT GIPNO DCT BULOL DCT IDAVO DCT BAGBI DCT SIZZA DCT LAULY DCT BRY DCT CLM DCT KOPOR DCT KESAX DCT KUNAV |
| Aircraft | A320/M-SDE3FGHIRWY/LB1 |
Departure
| Time | 2026-05-05 16:23 |
|---|---|
| Airport | Tunis Carthage International Airport (DTTA) |
Arrival
| Time | N/A |
|---|---|
| Airport | London Gatwick Airport (EGKK) |
| Time | Latitude | Longitude | Altitude | Speed | Heading |
|---|---|---|---|---|---|
| 2026-05-05 15:59 | 36.84281 | 10.21844 | 31 ft | 0 kts | 283° |
| 2026-05-05 16:14 | 36.84272 | 10.21894 | 30 ft | 3 kts | 284° |
| 2026-05-05 16:15 | 36.84237 | 10.21927 | 30 ft | 4 kts | 6° |
| 2026-05-05 16:15 | 36.84226 | 10.21926 | 30 ft | 0 kts | 12° |
| 2026-05-05 16:18 | 36.84244 | 10.21930 | 30 ft | 6 kts | 12° |
| 2026-05-05 16:18 | 36.84278 | 10.21940 | 30 ft | 5 kts | 12° |
| 2026-05-05 16:18 | 36.84412 | 10.21977 | 30 ft | 18 kts | 16° |
| 2026-05-05 16:19 | 36.84498 | 10.22097 | 30 ft | 19 kts | 65° |
| 2026-05-05 16:19 | 36.84512 | 10.22253 | 30 ft | 17 kts | 43° |
| 2026-05-05 16:19 | 36.84760 | 10.22326 | 30 ft | 20 kts | 12° |
| 2026-05-05 16:20 | 36.85005 | 10.22358 | 31 ft | 20 kts | 317° |
| 2026-05-05 16:20 | 36.85115 | 10.22042 | 30 ft | 23 kts | 293° |
| 2026-05-05 16:21 | 36.85281 | 10.21718 | 30 ft | 22 kts | 11° |
| 2026-05-05 16:22 | 36.85273 | 10.22236 | 34 ft | 72 kts | 112° |
| 2026-05-05 16:22 | 36.84607 | 10.24259 | 86 ft | 172 kts | 113° |
| 2026-05-05 16:23 | 36.83575 | 10.27145 | 1411 ft | 178 kts | 112° |
| 2026-05-05 16:23 | 36.83088 | 10.28653 | 1773 ft | 197 kts | 112° |
| 2026-05-05 16:23 | 36.80781 | 10.30327 | 2854 ft | 220 kts | 192° |
| 2026-05-05 16:24 | 36.79504 | 10.29287 | 3627 ft | 228 kts | 232° |
| 2026-05-05 16:24 | 36.79051 | 10.27360 | 4400 ft | 237 kts | 273° |
| 2026-05-05 16:24 | 36.81078 | 10.24315 | 5932 ft | 245 kts | 336° |
| 2026-05-05 16:25 | 36.82684 | 10.23582 | 6722 ft | 247 kts | 341° |
| 2026-05-05 16:25 | 36.86047 | 10.22482 | 8082 ft | 261 kts | 350° |
| 2026-05-05 16:25 | 36.87844 | 10.22099 | 8374 ft | 283 kts | 348° |
| 2026-05-05 16:26 | 36.91875 | 10.21021 | 9573 ft | 303 kts | 345° |
| 2026-05-05 16:26 | 36.96104 | 10.19734 | 10545 ft | 333 kts | 344° |
| 2026-05-05 16:27 | 36.98497 | 10.18980 | 10745 ft | 357 kts | 344° |
| 2026-05-05 16:27 | 37.00987 | 10.18192 | 10882 ft | 380 kts | 344° |
| 2026-05-05 16:27 | 37.03617 | 10.17362 | 11074 ft | 398 kts | 344° |
| 2026-05-05 16:27 | 37.06329 | 10.16512 | 11605 ft | 404 kts | 344° |
| 2026-05-05 16:28 | 37.09072 | 10.15660 | 12243 ft | 407 kts | 344° |
| 2026-05-05 16:28 | 37.11823 | 10.14809 | 12891 ft | 409 kts | 343° |
| 2026-05-05 16:28 | 37.14598 | 10.13950 | 13494 ft | 411 kts | 343° |
| 2026-05-05 16:28 | 37.17385 | 10.13085 | 14076 ft | 414 kts | 343° |
| 2026-05-05 16:29 | 37.20192 | 10.12211 | 14643 ft | 417 kts | 343° |
| 2026-05-05 16:29 | 37.23014 | 10.11327 | 15175 ft | 419 kts | 343° |
| 2026-05-05 16:29 | 37.25853 | 10.10434 | 15711 ft | 422 kts | 343° |
| 2026-05-05 16:29 | 37.28709 | 10.09535 | 16226 ft | 424 kts | 342° |
| 2026-05-05 16:30 | 37.31574 | 10.08632 | 16735 ft | 426 kts | 343° |
| 2026-05-05 16:30 | 37.34462 | 10.07723 | 17211 ft | 429 kts | 342° |
| 2026-05-05 16:30 | 37.36423 | 10.07106 | 17537 ft | 431 kts | 342° |
| 2026-05-05 16:30 | 37.39338 | 10.06191 | 17999 ft | 433 kts | 342° |
| 2026-05-05 16:31 | 37.42271 | 10.05272 | 18465 ft | 436 kts | 342° |
| 2026-05-05 16:31 | 37.45219 | 10.04346 | 18890 ft | 438 kts | 342° |
| 2026-05-05 16:31 | 37.48187 | 10.03407 | 19272 ft | 441 kts | 342° |
| 2026-05-05 16:31 | 37.51172 | 10.02459 | 19638 ft | 445 kts | 342° |
| 2026-05-05 16:32 | 37.54157 | 10.01510 | 19991 ft | 448 kts | 342° |
| 2026-05-05 16:32 | 37.57256 | 10.00528 | 20364 ft | 451 kts | 342° |
| 2026-05-05 16:32 | 37.60309 | 9.99560 | 20696 ft | 454 kts | 342° |
| 2026-05-05 16:32 | 37.63424 | 9.98574 | 21019 ft | 457 kts | 342° |
| 2026-05-05 16:33 | 37.66521 | 9.97590 | 21326 ft | 460 kts | 342° |
| 2026-05-05 16:33 | 37.69633 | 9.96597 | 21648 ft | 463 kts | 342° |
| 2026-05-05 16:33 | 37.72772 | 9.95592 | 21958 ft | 466 kts | 342° |
| 2026-05-05 16:33 | 37.75923 | 9.94582 | 22251 ft | 469 kts | 341° |
| 2026-05-05 16:34 | 37.79097 | 9.93566 | 22535 ft | 472 kts | 341° |
| 2026-05-05 16:34 | 37.82295 | 9.92545 | 22811 ft | 475 kts | 342° |
| 2026-05-05 16:34 | 37.85500 | 9.91525 | 23078 ft | 477 kts | 342° |
| 2026-05-05 16:34 | 37.88731 | 9.90500 | 23348 ft | 480 kts | 342° |
| 2026-05-05 16:35 | 37.91979 | 9.89472 | 23612 ft | 482 kts | 342° |
| 2026-05-05 16:35 | 37.95242 | 9.88436 | 23871 ft | 485 kts | 341° |
| 2026-05-05 16:35 | 37.98514 | 9.87392 | 24134 ft | 487 kts | 341° |
| 2026-05-05 16:35 | 38.01801 | 9.86340 | 24512 ft | 486 kts | 341° |
| 2026-05-05 16:36 | 38.05077 | 9.85288 | 24914 ft | 485 kts | 341° |
| 2026-05-05 16:36 | 38.08344 | 9.84241 | 25340 ft | 483 kts | 341° |
| 2026-05-05 16:36 | 38.11592 | 9.83200 | 25770 ft | 481 kts | 341° |
| 2026-05-05 16:36 | 38.14832 | 9.82156 | 26191 ft | 480 kts | 341° |
| 2026-05-05 16:37 | 38.18063 | 9.81114 | 26620 ft | 478 kts | 341° |
| 2026-05-05 16:37 | 38.21276 | 9.80080 | 27048 ft | 476 kts | 341° |
| 2026-05-05 16:37 | 38.24477 | 9.79050 | 27473 ft | 473 kts | 341° |
| 2026-05-05 16:37 | 38.27666 | 9.78024 | 27913 ft | 471 kts | 341° |
| 2026-05-05 16:38 | 38.30840 | 9.77006 | 28310 ft | 470 kts | 341° |
| 2026-05-05 16:38 | 38.34008 | 9.75991 | 28718 ft | 468 kts | 341° |
| 2026-05-05 16:38 | 38.37206 | 9.74964 | 29126 ft | 466 kts | 341° |
| 2026-05-05 16:38 | 38.40346 | 9.73956 | 29526 ft | 465 kts | 341° |
| 2026-05-05 16:39 | 38.43472 | 9.72952 | 29923 ft | 463 kts | 340° |
| 2026-05-05 16:39 | 38.46591 | 9.71948 | 30319 ft | 461 kts | 340° |
| 2026-05-05 16:39 | 38.49696 | 9.70948 | 30684 ft | 460 kts | 340° |
| 2026-05-05 16:39 | 38.52797 | 9.69949 | 31033 ft | 459 kts | 340° |
| 2026-05-05 16:40 | 38.55892 | 9.68948 | 31365 ft | 458 kts | 340° |
| 2026-05-05 16:40 | 38.58982 | 9.67947 | 31694 ft | 458 kts | 340° |
| 2026-05-05 16:40 | 38.62069 | 9.66947 | 32031 ft | 457 kts | 340° |
| 2026-05-05 16:40 | 38.65148 | 9.65951 | 32378 ft | 456 kts | 340° |
| 2026-05-05 16:41 | 38.68214 | 9.64959 | 32699 ft | 455 kts | 340° |
| 2026-05-05 16:41 | 38.71281 | 9.63967 | 33020 ft | 454 kts | 340° |
| 2026-05-05 16:41 | 38.74346 | 9.62974 | 33335 ft | 454 kts | 340° |
| 2026-05-05 16:41 | 38.77364 | 9.61998 | 33642 ft | 453 kts | 339° |
| 2026-05-05 16:42 | 38.80417 | 9.61009 | 33958 ft | 452 kts | 339° |
| 2026-05-05 16:42 | 38.83456 | 9.60018 | 34260 ft | 451 kts | 339° |
| 2026-05-05 16:42 | 38.86497 | 9.59024 | 34558 ft | 450 kts | 339° |
| 2026-05-05 16:42 | 38.89529 | 9.58033 | 34850 ft | 450 kts | 339° |
| 2026-05-05 16:43 | 38.92556 | 9.57035 | 35131 ft | 448 kts | 339° |
| 2026-05-05 16:43 | 38.95570 | 9.56021 | 35415 ft | 447 kts | 339° |
| 2026-05-05 16:43 | 38.98573 | 9.54998 | 35676 ft | 447 kts | 339° |
| 2026-05-05 16:43 | 39.01573 | 9.53966 | 35911 ft | 446 kts | 338° |
| 2026-05-05 16:44 | 39.07651 | 9.51870 | 36000 ft | 452 kts | 339° |
| 2026-05-05 16:44 | 39.13651 | 9.49868 | 35974 ft | 458 kts | 346° |
| 2026-05-05 16:45 | 39.17061 | 9.50016 | 35054 ft | 482 kts | 359° |
| 2026-05-05 16:45 | 39.20358 | 9.49890 | 34401 ft | 463 kts | 340° |
| 2026-05-05 16:45 | 39.23334 | 9.48600 | 34365 ft | 448 kts | 329° |
| 2026-05-05 16:45 | 39.26148 | 9.46889 | 34363 ft | 447 kts | 328° |
| 2026-05-05 16:46 | 39.31807 | 9.43526 | 34365 ft | 452 kts | 332° |
| 2026-05-05 16:46 | 39.37861 | 9.41117 | 34363 ft | 458 kts | 339° |
| 2026-05-05 16:47 | 39.44097 | 9.39251 | 34364 ft | 460 kts | 340° |
| 2026-05-05 16:47 | 39.50308 | 9.37325 | 34630 ft | 457 kts | 339° |
| 2026-05-05 16:48 | 39.53382 | 9.36282 | 34933 ft | 455 kts | 338° |
| 2026-05-05 16:48 | 39.56432 | 9.35212 | 35228 ft | 454 kts | 338° |
| 2026-05-05 16:48 | 39.59472 | 9.34133 | 35526 ft | 452 kts | 338° |
| 2026-05-05 16:48 | 39.62500 | 9.33061 | 35822 ft | 450 kts | 338° |
| 2026-05-05 16:49 | 39.65527 | 9.31994 | 35972 ft | 452 kts | 338° |
| 2026-05-05 16:49 | 39.68570 | 9.30930 | 35998 ft | 453 kts | 338° |
| 2026-05-05 16:49 | 39.74652 | 9.28824 | 35999 ft | 452 kts | 338° |
| 2026-05-05 16:50 | 39.80732 | 9.26712 | 36001 ft | 452 kts | 338° |
| 2026-05-05 16:50 | 39.86850 | 9.24579 | 35987 ft | 452 kts | 338° |
| 2026-05-05 16:51 | 39.92928 | 9.22451 | 35989 ft | 452 kts | 338° |
| 2026-05-05 16:51 | 39.99007 | 9.20322 | 35987 ft | 452 kts | 338° |
| 2026-05-05 16:52 | 40.05089 | 9.18196 | 35988 ft | 453 kts | 338° |
| 2026-05-05 16:52 | 40.11176 | 9.16062 | 35982 ft | 453 kts | 338° |
| 2026-05-05 16:53 | 40.17270 | 9.13918 | 35986 ft | 454 kts | 338° |
| 2026-05-05 16:53 | 40.23371 | 9.11769 | 35983 ft | 454 kts | 337° |
| 2026-05-05 16:54 | 40.29471 | 9.09614 | 35979 ft | 454 kts | 337° |
| 2026-05-05 16:54 | 40.35579 | 9.07447 | 35989 ft | 455 kts | 337° |
| 2026-05-05 16:55 | 40.41688 | 9.05279 | 35983 ft | 455 kts | 337° |
| 2026-05-05 16:55 | 40.47807 | 9.03108 | 35987 ft | 455 kts | 337° |
| 2026-05-05 16:56 | 40.53962 | 9.00917 | 35986 ft | 455 kts | 337° |
| 2026-05-05 16:56 | 40.60077 | 8.98740 | 35985 ft | 455 kts | 337° |
| 2026-05-05 16:57 | 40.65158 | 8.96928 | 35979 ft | 455 kts | 337° |
| 2026-05-05 16:57 | 40.71350 | 8.94710 | 35979 ft | 455 kts | 337° |
| 2026-05-05 16:58 | 40.77508 | 8.92506 | 35980 ft | 455 kts | 337° |
| 2026-05-05 16:58 | 40.83622 | 8.90315 | 35983 ft | 455 kts | 337° |
| 2026-05-05 16:59 | 40.89742 | 8.88110 | 35974 ft | 456 kts | 337° |
| 2026-05-05 16:59 | 40.95861 | 8.85909 | 35971 ft | 458 kts | 339° |
| 2026-05-05 17:00 | 41.02303 | 8.85072 | 35970 ft | 473 kts | 352° |
| 2026-05-05 17:00 | 41.09011 | 8.85013 | 35966 ft | 473 kts | 352° |
| 2026-05-05 17:01 | 41.15478 | 8.84933 | 35966 ft | 474 kts | 352° |
| 2026-05-05 17:01 | 41.22069 | 8.84839 | 35967 ft | 472 kts | 350° |
| 2026-05-05 17:02 | 41.28628 | 8.83292 | 35968 ft | 454 kts | 333° |
| 2026-05-05 17:02 | 41.34399 | 8.80754 | 35964 ft | 453 kts | 333° |
| 2026-05-05 17:03 | 41.40348 | 8.78116 | 35961 ft | 453 kts | 333° |
| 2026-05-05 17:03 | 41.46326 | 8.75438 | 35960 ft | 453 kts | 333° |
| 2026-05-05 17:04 | 41.52348 | 8.72734 | 35958 ft | 454 kts | 333° |
| 2026-05-05 17:04 | 41.58330 | 8.70050 | 35955 ft | 454 kts | 333° |
| 2026-05-05 17:05 | 41.64318 | 8.67362 | 35954 ft | 454 kts | 333° |
| 2026-05-05 17:05 | 41.70309 | 8.64676 | 35955 ft | 454 kts | 333° |
| 2026-05-05 17:06 | 41.76309 | 8.61977 | 35955 ft | 455 kts | 333° |
| 2026-05-05 17:06 | 41.82317 | 8.59262 | 35958 ft | 456 kts | 332° |
| 2026-05-05 17:07 | 41.88321 | 8.56540 | 35960 ft | 456 kts | 332° |
| 2026-05-05 17:07 | 41.94374 | 8.53799 | 35960 ft | 456 kts | 332° |
| 2026-05-05 17:08 | 42.00384 | 8.51073 | 35960 ft | 457 kts | 332° |
| 2026-05-05 17:08 | 42.06409 | 8.48327 | 35959 ft | 457 kts | 332° |
| 2026-05-05 17:09 | 42.12440 | 8.45577 | 35960 ft | 458 kts | 332° |
| 2026-05-05 17:09 | 42.18481 | 8.42819 | 35963 ft | 458 kts | 332° |
| 2026-05-05 17:10 | 42.24519 | 8.40046 | 35964 ft | 458 kts | 332° |
| 2026-05-05 17:10 | 42.30553 | 8.37264 | 35963 ft | 458 kts | 332° |
| 2026-05-05 17:11 | 42.36231 | 8.33706 | 35961 ft | 445 kts | 322° |
| 2026-05-05 17:11 | 42.41649 | 8.29644 | 35960 ft | 445 kts | 322° |
| 2026-05-05 17:12 | 42.47077 | 8.25573 | 35960 ft | 446 kts | 322° |
| 2026-05-05 17:12 | 42.52505 | 8.21504 | 35957 ft | 446 kts | 322° |
| 2026-05-05 17:13 | 42.57924 | 8.17418 | 35955 ft | 446 kts | 322° |
| 2026-05-05 17:13 | 42.63350 | 8.13333 | 35949 ft | 446 kts | 322° |
| 2026-05-05 17:14 | 42.68783 | 8.09235 | 35947 ft | 447 kts | 322° |
| 2026-05-05 17:14 | 42.74249 | 8.05091 | 35946 ft | 447 kts | 322° |
| 2026-05-05 17:15 | 42.79641 | 8.00989 | 35946 ft | 447 kts | 322° |
| 2026-05-05 17:15 | 42.85105 | 7.96835 | 35945 ft | 447 kts | 322° |
| 2026-05-05 17:16 | 42.90549 | 7.92696 | 35941 ft | 448 kts | 322° |
| 2026-05-05 17:16 | 42.95987 | 7.88536 | 35941 ft | 449 kts | 322° |
| 2026-05-05 17:17 | 43.01442 | 7.84399 | 35942 ft | 451 kts | 322° |
| 2026-05-05 17:17 | 43.06900 | 7.80202 | 35956 ft | 450 kts | 321° |
| 2026-05-05 17:18 | 43.12392 | 7.75946 | 35952 ft | 451 kts | 322° |
| 2026-05-05 17:18 | 43.17626 | 7.71916 | 35949 ft | 452 kts | 322° |
| 2026-05-05 17:19 | 43.23100 | 7.67679 | 35946 ft | 452 kts | 322° |
| 2026-05-05 17:19 | 43.28576 | 7.63428 | 35946 ft | 452 kts | 322° |
| 2026-05-05 17:20 | 43.34055 | 7.59155 | 35949 ft | 453 kts | 322° |
| 2026-05-05 17:20 | 43.39513 | 7.54897 | 35948 ft | 453 kts | 322° |
| 2026-05-05 17:21 | 43.45000 | 7.50616 | 35944 ft | 454 kts | 322° |
| 2026-05-05 17:22 | 43.53246 | 7.44185 | 35940 ft | 454 kts | 322° |
| 2026-05-05 17:22 | 43.58736 | 7.39872 | 35940 ft | 454 kts | 322° |
| 2026-05-05 17:23 | 43.64228 | 7.35467 | 35941 ft | 452 kts | 320° |
| 2026-05-05 17:23 | 43.68596 | 7.31548 | 35941 ft | 449 kts | 317° |
| 2026-05-05 17:24 | 43.73745 | 7.26664 | 35940 ft | 449 kts | 317° |
| 2026-05-05 17:24 | 43.78917 | 7.21803 | 35937 ft | 450 kts | 318° |
| 2026-05-05 17:25 | 43.84140 | 7.16995 | 35936 ft | 451 kts | 318° |
| 2026-05-05 17:25 | 43.89376 | 7.12206 | 35937 ft | 451 kts | 318° |
| 2026-05-05 17:26 | 43.94604 | 7.07399 | 35940 ft | 451 kts | 318° |
| 2026-05-05 17:26 | 43.99821 | 7.02570 | 35931 ft | 451 kts | 318° |
| 2026-05-05 17:27 | 44.05039 | 6.97722 | 35926 ft | 452 kts | 318° |
| 2026-05-05 17:27 | 44.10310 | 6.92815 | 35919 ft | 454 kts | 318° |
| 2026-05-05 17:28 | 44.15575 | 6.87905 | 35918 ft | 456 kts | 319° |
| 2026-05-05 17:28 | 44.20856 | 6.82983 | 35917 ft | 457 kts | 319° |
| 2026-05-05 17:29 | 44.26135 | 6.78047 | 35918 ft | 458 kts | 318° |
| 2026-05-05 17:29 | 44.31423 | 6.73074 | 35919 ft | 458 kts | 318° |
| 2026-05-05 17:30 | 44.36382 | 6.68398 | 35921 ft | 458 kts | 318° |
| 2026-05-05 17:30 | 44.41673 | 6.63407 | 35926 ft | 459 kts | 317° |
| 2026-05-05 17:30 | 44.44414 | 6.60630 | 32673 ft | 312 kts | 326° |
| 2026-05-05 17:31 | 44.44700 | 6.59129 | 22044 ft | 209 kts | 295° |
| 2026-05-05 17:31 | 44.45127 | 6.58479 | 8361 ft | 0 kts | 279° |
| 2026-05-05 17:31 | 44.45127 | 6.58482 | 8360 ft | 0 kts | 279° |
| 2026-05-05 17:35 | 44.45106 | 6.58559 | 8315 ft | 0 kts | 46° |
| 2026-05-05 17:38 | 44.45108 | 6.58561 | 8313 ft | 9 kts | 45° |
| 2026-05-05 17:38 | 44.45691 | 6.58939 | 7868 ft | 167 kts | 33° |
| 2026-05-05 17:38 | 44.46457 | 6.59604 | 7929 ft | 216 kts | 29° |
| 2026-05-05 17:38 | 44.48108 | 6.60883 | 8463 ft | 256 kts | 27° |
| 2026-05-05 17:39 | 44.49776 | 6.61990 | 9044 ft | 274 kts | 22° |
| 2026-05-05 17:39 | 44.51599 | 6.62979 | 9625 ft | 289 kts | 19° |
| 2026-05-05 17:39 | 44.53539 | 6.63859 | 10197 ft | 296 kts | 18° |
| 2026-05-05 17:39 | 44.55512 | 6.65034 | 10788 ft | 303 kts | 25° |
| 2026-05-05 17:40 | 44.57386 | 6.66353 | 11226 ft | 312 kts | 27° |
| 2026-05-05 17:40 | 44.59373 | 6.67845 | 11530 ft | 340 kts | 28° |
| 2026-05-05 17:40 | 44.61683 | 6.69292 | 11743 ft | 387 kts | 18° |
| 2026-05-05 17:40 | 44.64428 | 6.70199 | 12068 ft | 422 kts | 6° |
| 2026-05-05 17:41 | 44.67489 | 6.70393 | 12489 ft | 444 kts | 355° |
| 2026-05-05 17:41 | 44.70545 | 6.70149 | 13831 ft | 437 kts | 354° |
| 2026-05-05 17:41 | 44.73511 | 6.69475 | 15214 ft | 429 kts | 342° |
| 2026-05-05 17:41 | 44.76269 | 6.68002 | 16595 ft | 419 kts | 329° |
| 2026-05-05 17:42 | 44.78752 | 6.65917 | 17781 ft | 419 kts | 322° |
| 2026-05-05 17:42 | 44.81177 | 6.63444 | 17849 ft | 441 kts | 317° |
| 2026-05-05 17:42 | 44.83521 | 6.60529 | 17831 ft | 460 kts | 311° |
| 2026-05-05 17:42 | 44.85783 | 6.57347 | 18641 ft | 455 kts | 310° |
| 2026-05-05 17:43 | 44.88026 | 6.54144 | 18956 ft | 466 kts | 309° |
| 2026-05-05 17:43 | 44.90243 | 6.50831 | 19790 ft | 460 kts | 309° |
| 2026-05-05 17:43 | 44.92437 | 6.47559 | 20524 ft | 460 kts | 309° |
| 2026-05-05 17:43 | 44.94686 | 6.44332 | 21126 ft | 461 kts | 310° |
| 2026-05-05 17:44 | 44.97007 | 6.41190 | 21598 ft | 466 kts | 312° |
| 2026-05-05 17:44 | 44.99384 | 6.38026 | 21809 ft | 473 kts | 311° |
| 2026-05-05 17:44 | 45.01690 | 6.34659 | 21987 ft | 478 kts | 307° |
| 2026-05-05 17:44 | 45.03832 | 6.31033 | 22175 ft | 481 kts | 303° |
| 2026-05-05 17:45 | 45.05811 | 6.27222 | 22682 ft | 479 kts | 301° |
| 2026-05-05 17:45 | 45.07755 | 6.23436 | 23375 ft | 474 kts | 301° |
| 2026-05-05 17:45 | 45.09684 | 6.19675 | 24006 ft | 472 kts | 300° |
| 2026-05-05 17:45 | 45.11569 | 6.15866 | 24479 ft | 472 kts | 299° |
| 2026-05-05 17:46 | 45.13428 | 6.12029 | 24971 ft | 472 kts | 299° |
| 2026-05-05 17:46 | 45.15301 | 6.08210 | 25483 ft | 473 kts | 299° |
| 2026-05-05 17:46 | 45.17157 | 6.04360 | 26002 ft | 472 kts | 298° |
| 2026-05-05 17:46 | 45.18910 | 6.00443 | 26557 ft | 469 kts | 296° |
| 2026-05-05 17:47 | 45.20678 | 5.96591 | 27325 ft | 465 kts | 298° |
| 2026-05-05 17:47 | 45.22540 | 5.92858 | 28097 ft | 461 kts | 300° |
| 2026-05-05 17:47 | 45.24479 | 5.89270 | 28863 ft | 457 kts | 302° |
| 2026-05-05 17:47 | 45.26504 | 5.85815 | 29647 ft | 453 kts | 304° |
| 2026-05-05 17:48 | 45.28603 | 5.82501 | 30394 ft | 450 kts | 305° |
| 2026-05-05 17:48 | 45.30709 | 5.79187 | 30749 ft | 454 kts | 304° |
| 2026-05-05 17:48 | 45.32792 | 5.75798 | 31100 ft | 456 kts | 304° |
| 2026-05-05 17:48 | 45.34872 | 5.72300 | 31498 ft | 458 kts | 303° |
| 2026-05-05 17:49 | 45.36875 | 5.68770 | 31869 ft | 459 kts | 300° |
| 2026-05-05 17:49 | 45.38645 | 5.65028 | 32315 ft | 453 kts | 294° |
| 2026-05-05 17:49 | 45.40115 | 5.61101 | 32812 ft | 448 kts | 288° |
| 2026-05-05 17:49 | 45.41283 | 5.57022 | 33305 ft | 442 kts | 283° |
| 2026-05-05 17:50 | 45.42175 | 5.52868 | 33825 ft | 437 kts | 278° |
| 2026-05-05 17:50 | 45.42807 | 5.48662 | 34361 ft | 431 kts | 274° |
| 2026-05-05 17:50 | 45.43174 | 5.44457 | 34921 ft | 426 kts | 269° |
| 2026-05-05 17:50 | 45.43279 | 5.40270 | 35485 ft | 420 kts | 265° |
| 2026-05-05 17:51 | 45.43125 | 5.36153 | 36050 ft | 414 kts | 261° |
| 2026-05-05 17:51 | 45.43282 | 5.32058 | 36624 ft | 420 kts | 280° |
| 2026-05-05 17:51 | 45.44480 | 5.28159 | 36857 ft | 435 kts | 292° |
| 2026-05-05 17:51 | 45.46081 | 5.24015 | 35808 ft | 471 kts | 294° |
| 2026-05-05 17:52 | 45.47700 | 5.19883 | 36363 ft | 467 kts | 294° |
| 2026-05-05 17:52 | 45.49280 | 5.15860 | 36843 ft | 465 kts | 294° |
| 2026-05-05 17:52 | 45.50855 | 5.11858 | 37370 ft | 461 kts | 294° |
| 2026-05-05 17:52 | 45.52420 | 5.07886 | 37902 ft | 457 kts | 294° |
| 2026-05-05 17:53 | 45.53971 | 5.03956 | 38432 ft | 452 kts | 295° |
| 2026-05-05 17:53 | 45.55509 | 5.00065 | 38957 ft | 448 kts | 295° |
| 2026-05-05 17:53 | 45.57115 | 4.96047 | 38098 ft | 460 kts | 296° |
| 2026-05-05 17:53 | 45.58803 | 4.91995 | 37073 ft | 467 kts | 296° |
| 2026-05-05 17:54 | 45.60437 | 4.88103 | 36879 ft | 450 kts | 296° |
| 2026-05-05 17:54 | 45.62060 | 4.84312 | 36244 ft | 444 kts | 297° |
| 2026-05-05 17:54 | 45.63939 | 4.80815 | 35436 ft | 446 kts | 307° |
| 2026-05-05 17:54 | 45.65604 | 4.78663 | 33806 ft | 475 kts | 319° |
| 2026-05-05 17:55 | 45.68666 | 4.76429 | 31961 ft | 510 kts | 336° |
| 2026-05-05 17:55 | 45.72132 | 4.75270 | 30786 ft | 517 kts | 350° |
| 2026-05-05 17:55 | 45.75693 | 4.75420 | 29638 ft | 523 kts | 7° |
| 2026-05-05 17:55 | 45.79214 | 4.76905 | 28805 ft | 517 kts | 23° |
| 2026-05-05 17:56 | 45.82150 | 4.79760 | 28106 ft | 506 kts | 45° |
| 2026-05-05 17:56 | 45.84260 | 4.83779 | 27056 ft | 493 kts | 62° |
| 2026-05-05 17:56 | 45.85486 | 4.88237 | 24491 ft | 508 kts | 81° |
| 2026-05-05 17:56 | 45.85721 | 4.93392 | 22321 ft | 522 kts | 94° |
| 2026-05-05 17:57 | 45.85636 | 4.98461 | 21918 ft | 495 kts | 95° |
| 2026-05-05 17:57 | 45.85292 | 5.03417 | 19958 ft | 494 kts | 108° |
| 2026-05-05 17:57 | 45.83996 | 5.07822 | 18898 ft | 473 kts | 125° |
| 2026-05-05 17:57 | 45.81901 | 5.11323 | 17628 ft | 456 kts | 143° |
| 2026-05-05 17:58 | 45.79218 | 5.13571 | 16480 ft | 439 kts | 161° |
| 2026-05-05 17:58 | 45.76274 | 5.14374 | 15353 ft | 425 kts | 180° |
| 2026-05-05 17:58 | 45.73395 | 5.13664 | 14191 ft | 417 kts | 201° |
| 2026-05-05 17:58 | 45.70757 | 5.11930 | 13364 ft | 404 kts | 206° |
| 2026-05-05 17:59 | 45.68155 | 5.10157 | 12323 ft | 396 kts | 206° |
| 2026-05-05 17:59 | 45.65691 | 5.08481 | 11366 ft | 387 kts | 206° |
| 2026-05-05 17:59 | 45.63227 | 5.06807 | 10177 ft | 385 kts | 206° |
| 2026-05-05 17:59 | 45.60810 | 5.05154 | 9031 ft | 383 kts | 206° |
| 2026-05-05 18:00 | 45.58399 | 5.03503 | 8010 ft | 377 kts | 206° |
| 2026-05-05 18:00 | 45.55950 | 5.02345 | 7459 ft | 358 kts | 203° |
| 2026-05-05 18:00 | 45.54169 | 5.00071 | 7481 ft | 322 kts | 243° |
| 2026-05-05 18:00 | 45.53825 | 4.96834 | 7099 ft | 310 kts | 277° |
| 2026-05-05 18:01 | 45.54657 | 4.94095 | 5907 ft | 329 kts | 307° |
| 2026-05-05 18:01 | 45.56584 | 4.92132 | 4565 ft | 347 kts | 338° |
| 2026-05-05 18:01 | 45.58994 | 4.91814 | 3290 ft | 359 kts | 10° |
| 2026-05-05 18:01 | 45.61106 | 4.93395 | 3180 ft | 333 kts | 44° |
| 2026-05-05 18:02 | 45.62213 | 4.96062 | 3236 ft | 302 kts | 77° |
| 2026-05-05 18:02 | 45.62095 | 4.98880 | 3239 ft | 274 kts | 114° |
| 2026-05-05 18:02 | 45.60886 | 5.00825 | 3145 ft | 251 kts | 150° |
| 2026-05-05 18:02 | 45.59302 | 5.02075 | 2394 ft | 260 kts | 147° |
| 2026-05-05 18:03 | 45.58355 | 5.03162 | 2191 ft | 254 kts | 136° |
| 2026-05-05 18:03 | 45.57339 | 5.05071 | 2277 ft | 231 kts | 118° |
| 2026-05-05 18:03 | 45.56966 | 5.07177 | 2319 ft | 212 kts | 85° |